F/V Adeline Stephen — FGUF — position and weather

sailwx.info

Track history (hours):
 
Tides and Currents Weather Stations Pressure Air Temp Water Temp Dewpoint Dewpoint Depression Visibility Wind Speed Wind Dir Waves Ship Positions

F/V Adeline Stephen

Last reported at 2016-Dec-07 19:28 UTC. Time now 2016-Dec-07 20:22 UTC.
Position N 46°57' W 002°40'.

Length 18 m.

Type: Fishing. MMSI: 228929000.

Date/timePositionNaut miles runAvg speedWind from/ knotsBaromVisibWave heightAir tempDewpointWater temp
2016-Dec-07 19:28N 46°57' W 002°40'2 1.2
2016-Dec-07 17:28N 46°55' W 002°38'3 3.0
2016-Dec-07 16:31N 46°54' W 002°42'3 2.7
2016-Dec-07 15:33N 46°56' W 002°45'2 1.1
2016-Dec-07 14:12N 46°56' W 002°43'3 2.9
2016-Dec-07 13:18N 46°54' W 002°42'4 2.3
2016-Dec-07 11:29N 46°52' W 002°37'2 2.1
2016-Dec-07 10:33N 46°51' W 002°39'3 2.8
2016-Dec-07 09:30N 46°53' W 002°41'2 2.5
2016-Dec-07 08:33N 46°56' W 002°40'3 2.7
2016-Dec-07 07:33N 46°57' W 002°44'4 2.5
2016-Dec-07 06:05N 46°54' W 002°40'2 2.7
2016-Dec-07 05:22N 46°56' W 002°41'2 2.8
2016-Dec-07 04:31N 46°58' W 002°43'5 3.9
2016-Dec-07 03:09N 47°04' W 002°43'6 9.1
2016-Dec-07 02:31N 47°09' W 002°40'9 9.1
2016-Dec-07 01:33N 47°17' W 002°35'4 2.0
2016-Dec-06 23:33N 47°20' W 002°32'9 8.7
2016-Dec-06 22:28N 47°12' W 002°37'9 9.0
2016-Dec-06 21:27N 47°03' W 002°41'5 0.5
2016-Dec-06 11:29N 46°58' W 002°44'1 0.4
2016-Dec-06 08:33N 46°57' W 002°43'2 0.6
2016-Dec-06 05:28N 46°56' W 002°41'3 2.8
2016-Dec-06 04:32N 46°58' W 002°43'3 2.7
2016-Dec-06 03:33N 47°01' W 002°44'3 2.5
2016-Dec-06 02:33N 47°00' W 002°48'3 3.2
2016-Dec-06 01:31N 46°58' W 002°51'3 2.7
2016-Dec-06 00:33N 46°59' W 002°55'3 2.6
2016-Dec-05 23:30N 47°00' W 002°58'3 2.7
2016-Dec-05 22:33N 47°03' W 002°60'11 1.1
2016-Dec-05 13:06N 46°59' W 002°45'2 2.4
2016-Dec-05 12:27N 46°60' W 002°47'2 2.5
2016-Dec-05 11:33N 47°00' W 002°51'3 2.6
2016-Dec-05 10:33N 47°02' W 002°52'2 2.5
2016-Dec-05 09:33N 47°05' W 002°51'3 2.7
2016-Dec-05 08:33N 47°07' W 002°50'3 2.7
2016-Dec-05 07:33N 47°10' W 002°51'3 2.8
2016-Dec-05 06:33N 47°12' W 002°54'5 5.4
2016-Dec-05 05:33N 47°17' W 002°58'8 8.4
2016-Dec-05 04:33N 47°23' W 003°06'9 9.0
2016-Dec-05 03:33N 47°31' W 003°13'9 8.9
2016-Dec-05 02:33N 47°38' W 003°20'6 5.6
2016-Dec-05 01:33N 47°44' W 003°22'  
2016-Dec-01 14:33N 47°44' W 003°22'0 0.1
2016-Dec-01 13:33N 47°44' W 003°22'0 0.1
2016-Dec-01 12:33N 47°44' W 003°22'6 5.8
2016-Dec-01 11:33N 47°38' W 003°20'10 9.5
2016-Dec-01 10:30N 47°30' W 003°12'9 9.9
2016-Dec-01 09:33N 47°22' W 003°05'9 9.0
2016-Dec-01 08:33N 47°14' W 002°59'4 4.0
2016-Dec-01 07:33N 47°10' W 002°55'0 0.4
2016-Dec-01 06:30N 47°10' W 002°55'3 3.3
2016-Dec-01 05:33N 47°08' W 002°51'1 1.3
2016-Dec-01 04:30N 47°07' W 002°52'2 1.7
2016-Dec-01 03:18N 47°05' W 002°51'2 2.5
2016-Dec-01 02:33N 47°07' W 002°50'3 2.4
2016-Dec-01 01:30N 47°09' W 002°51'2 2.6
2016-Dec-01 00:33N 47°12' W 002°50'2 2.4
2016-Nov-30 23:33N 47°13' W 002°54'3 2.9
2016-Nov-30 22:33N 47°10' W 002°55'3 2.5
2016-Nov-30 21:30N 47°10' W 002°51'3 3.3
2016-Nov-30 20:33N 47°12' W 002°48'15 7.5
2016-Nov-30 18:33N 47°21' W 002°31'0 0.0
2016-Nov-30 17:33N 47°21' W 002°31'11 8.0
2016-Nov-30 16:09N 47°13' W 002°42'6 9.4
2016-Nov-30 15:33N 47°10' W 002°49'2 1.6
2016-Nov-30 14:33N 47°11' W 002°50'3 3.1
2016-Nov-30 13:33N 47°08' W 002°50'3 3.4
2016-Nov-30 12:33N 47°05' W 002°52'3 3.3
2016-Nov-30 11:33N 47°02' W 002°54'3 2.7
2016-Nov-30 10:33N 47°01' W 002°57'2 2.5
2016-Nov-30 09:33N 47°02' W 003°01'3 2.5
2016-Nov-30 08:33N 47°04' W 003°02'3 2.6
2016-Nov-30 07:33N 47°06' W 003°03'1 1.5
2016-Nov-30 06:33N 47°08' W 003°05'8 2.0
2016-Nov-30 02:33N 47°00' W 002°60'5 2.7
2016-Nov-30 00:33N 47°05' W 003°03'3 1.5
2016-Nov-29 22:27N 47°02' W 003°03'2 2.1
2016-Nov-29 21:33N 47°03' W 003°05'3 2.5
2016-Nov-29 20:33N 47°06' W 003°05'2 2.1
2016-Nov-29 19:33N 47°07' W 003°03'4 2.9
2016-Nov-29 18:15N 47°04' W 003°02'6 1.7
2016-Nov-29 14:33N 46°58' W 002°57'2 2.4
2016-Nov-29 13:33N 46°60' W 002°60'3 2.7
2016-Nov-29 12:33N 47°02' W 003°01'3 2.6
2016-Nov-29 11:33N 47°05' W 003°02'3 2.6
2016-Nov-29 10:33N 47°08' W 003°02'2 2.4
2016-Nov-29 09:33N 47°10' W 003°01'3 3.0
2016-Nov-29 08:33N 47°12' W 002°58'3 3.4
2016-Nov-29 07:33N 47°13' W 002°53'2 2.2
2016-Nov-29 06:33N 47°13' W 002°50'2 2.3
2016-Nov-29 05:33N 47°11' W 002°52'2 2.5
2016-Nov-29 04:33N 47°09' W 002°54'2 2.4
2016-Nov-29 03:33N 47°07' W 002°57'1 0.7
2016-Nov-29 02:33N 47°08' W 002°57'3 2.8
2016-Nov-29 01:33N 47°11' W 002°56'3 2.6
2016-Nov-29 00:33N 47°13' W 002°55'3 2.6
2016-Nov-28 23:34N 47°13' W 002°59'3 3.0
2016-Nov-28 22:30N 47°10' W 002°59'2 2.2
2016-Nov-28 21:33N 47°08' W 003°02'2 2.3
2016-Nov-28 20:33N 47°07' W 003°05'2 2.0
2016-Nov-28 19:24N 47°06' W 003°03'3 3.0
2016-Nov-28 18:30N 47°08' W 003°01'3 3.0
2016-Nov-28 17:33N 47°11' W 002°59'2 2.5
2016-Nov-28 16:33N 47°13' W 002°58'2 1.7
2016-Nov-28 15:33N 47°13' W 002°56'3 2.7
2016-Nov-28 14:29N 47°11' W 002°59'1 1.1
2016-Nov-28 13:33N 47°11' W 002°58'2 2.4
2016-Nov-28 12:33N 47°13' W 002°55'3 3.0
2016-Nov-28 11:33N 47°12' W 002°59'3 3.0
2016-Nov-28 10:27N 47°08' W 002°59'2 1.9
2016-Nov-28 09:33N 47°07' W 003°00'2 2.0
2016-Nov-28 08:33N 47°08' W 003°03'3 3.2
2016-Nov-28 07:33N 47°10' W 002°59'3 3.5
2016-Nov-28 06:33N 47°12' W 002°56'6 6.1
2016-Nov-28 05:33N 47°17' W 003°00'9 9.0
2016-Nov-28 04:33N 47°25' W 003°07'9 9.1
2016-Nov-28 03:33N 47°33' W 003°15'9 9.2
2016-Nov-28 02:33N 47°40' W 003°22'3 3.3
2016-Nov-28 01:33N 47°44' W 003°22'0 0.1
2016-Nov-28 00:33N 47°44' W 003°22'1 1.3
2016-Nov-27 23:33N 47°42' W 003°22'9 9.3
2016-Nov-27 22:33N 47°34' W 003°16'9 9.2
2016-Nov-27 21:33N 47°26' W 003°09'10 9.6
2016-Nov-27 20:33N 47°18' W 003°01'6 6.1
2016-Nov-27 19:33N 47°13' W 002°57'  
Track history (hours):
 
Tides and Currents Weather Stations Pressure Air Temp Water Temp Dewpoint Dewpoint Depression Visibility Wind Speed Wind Dir Waves Ship Positions

F/V Adeline Stephen

Last reported at 2016-Dec-07 19:28 UTC. Time now 2016-Dec-07 20:22 UTC.
Position N 46°57' W 002°40'.

Length 18 m.

Type: Fishing. MMSI: 228929000.

Date/timePositionNaut miles runAvg speedWind from/ knotsBaromVisibWave heightAir tempDewpointWater temp
2016-Dec-07 19:28N 46°57' W 002°40'2 1.2
2016-Dec-07 17:28N 46°55' W 002°38'3 3.0
2016-Dec-07 16:31N 46°54' W 002°42'3 2.7
2016-Dec-07 15:33N 46°56' W 002°45'2 1.1
2016-Dec-07 14:12N 46°56' W 002°43'3 2.9
2016-Dec-07 13:18N 46°54' W 002°42'4 2.3
2016-Dec-07 11:29N 46°52' W 002°37'2 2.1
2016-Dec-07 10:33N 46°51' W 002°39'3 2.8
2016-Dec-07 09:30N 46°53' W 002°41'2 2.5
2016-Dec-07 08:33N 46°56' W 002°40'3 2.7
2016-Dec-07 07:33N 46°57' W 002°44'4 2.5
2016-Dec-07 06:05N 46°54' W 002°40'2 2.7
2016-Dec-07 05:22N 46°56' W 002°41'2 2.8
2016-Dec-07 04:31N 46°58' W 002°43'5 3.9
2016-Dec-07 03:09N 47°04' W 002°43'6 9.1
2016-Dec-07 02:31N 47°09' W 002°40'9 9.1
2016-Dec-07 01:33N 47°17' W 002°35'4 2.0
2016-Dec-06 23:33N 47°20' W 002°32'9 8.7
2016-Dec-06 22:28N 47°12' W 002°37'9 9.0
2016-Dec-06 21:27N 47°03' W 002°41'5 0.5
2016-Dec-06 11:29N 46°58' W 002°44'1 0.4
2016-Dec-06 08:33N 46°57' W 002°43'2 0.6
2016-Dec-06 05:28N 46°56' W 002°41'3 2.8
2016-Dec-06 04:32N 46°58' W 002°43'3 2.7
2016-Dec-06 03:33N 47°01' W 002°44'3 2.5
2016-Dec-06 02:33N 47°00' W 002°48'3 3.2
2016-Dec-06 01:31N 46°58' W 002°51'3 2.7
2016-Dec-06 00:33N 46°59' W 002°55'3 2.6
2016-Dec-05 23:30N 47°00' W 002°58'3 2.7
2016-Dec-05 22:33N 47°03' W 002°60'11 1.1
2016-Dec-05 13:06N 46°59' W 002°45'2 2.4
2016-Dec-05 12:27N 46°60' W 002°47'2 2.5
2016-Dec-05 11:33N 47°00' W 002°51'3 2.6
2016-Dec-05 10:33N 47°02' W 002°52'2 2.5
2016-Dec-05 09:33N 47°05' W 002°51'3 2.7
2016-Dec-05 08:33N 47°07' W 002°50'3 2.7
2016-Dec-05 07:33N 47°10' W 002°51'3 2.8
2016-Dec-05 06:33N 47°12' W 002°54'5 5.4
2016-Dec-05 05:33N 47°17' W 002°58'8 8.4
2016-Dec-05 04:33N 47°23' W 003°06'9 9.0
2016-Dec-05 03:33N 47°31' W 003°13'9 8.9
2016-Dec-05 02:33N 47°38' W 003°20'6 5.6
2016-Dec-05 01:33N 47°44' W 003°22'  
2016-Dec-01 14:33N 47°44' W 003°22'0 0.1
2016-Dec-01 13:33N 47°44' W 003°22'0 0.1
2016-Dec-01 12:33N 47°44' W 003°22'6 5.8
2016-Dec-01 11:33N 47°38' W 003°20'10 9.5
2016-Dec-01 10:30N 47°30' W 003°12'9 9.9
2016-Dec-01 09:33N 47°22' W 003°05'9 9.0
2016-Dec-01 08:33N 47°14' W 002°59'4 4.0
2016-Dec-01 07:33N 47°10' W 002°55'0 0.4
2016-Dec-01 06:30N 47°10' W 002°55'3 3.3
2016-Dec-01 05:33N 47°08' W 002°51'1 1.3
2016-Dec-01 04:30N 47°07' W 002°52'2 1.7
2016-Dec-01 03:18N 47°05' W 002°51'2 2.5
2016-Dec-01 02:33N 47°07' W 002°50'3 2.4
2016-Dec-01 01:30N 47°09' W 002°51'2 2.6
2016-Dec-01 00:33N 47°12' W 002°50'2 2.4
2016-Nov-30 23:33N 47°13' W 002°54'3 2.9
2016-Nov-30 22:33N 47°10' W 002°55'3 2.5
2016-Nov-30 21:30N 47°10' W 002°51'3 3.3
2016-Nov-30 20:33N 47°12' W 002°48'15 7.5
2016-Nov-30 18:33N 47°21' W 002°31'0 0.0
2016-Nov-30 17:33N 47°21' W 002°31'11 8.0
2016-Nov-30 16:09N 47°13' W 002°42'6 9.4
2016-Nov-30 15:33N 47°10' W 002°49'2 1.6
2016-Nov-30 14:33N 47°11' W 002°50'3 3.1
2016-Nov-30 13:33N 47°08' W 002°50'3 3.4
2016-Nov-30 12:33N 47°05' W 002°52'3 3.3
2016-Nov-30 11:33N 47°02' W 002°54'3 2.7
2016-Nov-30 10:33N 47°01' W 002°57'2 2.5
2016-Nov-30 09:33N 47°02' W 003°01'3 2.5
2016-Nov-30 08:33N 47°04' W 003°02'3 2.6
2016-Nov-30 07:33N 47°06' W 003°03'1 1.5
2016-Nov-30 06:33N 47°08' W 003°05'8 2.0
2016-Nov-30 02:33N 47°00' W 002°60'5 2.7
2016-Nov-30 00:33N 47°05' W 003°03'3 1.5
2016-Nov-29 22:27N 47°02' W 003°03'2 2.1
2016-Nov-29 21:33N 47°03' W 003°05'3 2.5
2016-Nov-29 20:33N 47°06' W 003°05'2 2.1
2016-Nov-29 19:33N 47°07' W 003°03'4 2.9
2016-Nov-29 18:15N 47°04' W 003°02'6 1.7
2016-Nov-29 14:33N 46°58' W 002°57'2 2.4
2016-Nov-29 13:33N 46°60' W 002°60'3 2.7
2016-Nov-29 12:33N 47°02' W 003°01'3 2.6
2016-Nov-29 11:33N 47°05' W 003°02'3 2.6
2016-Nov-29 10:33N 47°08' W 003°02'2 2.4
2016-Nov-29 09:33N 47°10' W 003°01'3 3.0
2016-Nov-29 08:33N 47°12' W 002°58'3 3.4
2016-Nov-29 07:33N 47°13' W 002°53'2 2.2
2016-Nov-29 06:33N 47°13' W 002°50'2 2.3
2016-Nov-29 05:33N 47°11' W 002°52'2 2.5
2016-Nov-29 04:33N 47°09' W 002°54'2 2.4
2016-Nov-29 03:33N 47°07' W 002°57'1 0.7
2016-Nov-29 02:33N 47°08' W 002°57'3 2.8
2016-Nov-29 01:33N 47°11' W 002°56'3 2.6
2016-Nov-29 00:33N 47°13' W 002°55'3 2.6
2016-Nov-28 23:34N 47°13' W 002°59'3 3.0
2016-Nov-28 22:30N 47°10' W 002°59'2 2.2
2016-Nov-28 21:33N 47°08' W 003°02'2 2.3
2016-Nov-28 20:33N 47°07' W 003°05'2 2.0
2016-Nov-28 19:24N 47°06' W 003°03'3 3.0
2016-Nov-28 18:30N 47°08' W 003°01'3 3.0
2016-Nov-28 17:33N 47°11' W 002°59'2 2.5
2016-Nov-28 16:33N 47°13' W 002°58'2 1.7
2016-Nov-28 15:33N 47°13' W 002°56'3 2.7
2016-Nov-28 14:29N 47°11' W 002°59'1 1.1
2016-Nov-28 13:33N 47°11' W 002°58'2 2.4
2016-Nov-28 12:33N 47°13' W 002°55'3 3.0
2016-Nov-28 11:33N 47°12' W 002°59'3 3.0
2016-Nov-28 10:27N 47°08' W 002°59'2 1.9
2016-Nov-28 09:33N 47°07' W 003°00'2 2.0
2016-Nov-28 08:33N 47°08' W 003°03'3 3.2
2016-Nov-28 07:33N 47°10' W 002°59'3 3.5
2016-Nov-28 06:33N 47°12' W 002°56'6 6.1
2016-Nov-28 05:33N 47°17' W 003°00'9 9.0
2016-Nov-28 04:33N 47°25' W 003°07'9 9.1
2016-Nov-28 03:33N 47°33' W 003°15'9 9.2
2016-Nov-28 02:33N 47°40' W 003°22'3 3.3
2016-Nov-28 01:33N 47°44' W 003°22'0 0.1
2016-Nov-28 00:33N 47°44' W 003°22'1 1.3
2016-Nov-27 23:33N 47°42' W 003°22'9 9.3
2016-Nov-27 22:33N 47°34' W 003°16'9 9.2
2016-Nov-27 21:33N 47°26' W 003°09'10 9.6
2016-Nov-27 20:33N 47°18' W 003°01'6 6.1
2016-Nov-27 19:33N 47°13' W 002°57'  

Dump ship's entire track history